Time;durP1;ratioP1;P1;durP2;ratioP2;P2;SDS_P1;SDS_P2;PMS_P1;PMS_P2;Temp;Humidity;BMP_temperature;BMP_pressure;BME280_temperature;BME280_humidity;BME280_pressure;Samples;Min_cycle;Max_cycle;Signal;HPM_P1;HPM_P2
2022/03/17 00:01:58;;;;;;;15.95;12.23;;;10.70;99.90;;;;;;5022142;28;20057;-84
2022/03/17 00:04:24;;;;;;;14.68;12.05;;;10.70;99.90;;;;;;5004939;28;20042;-84
2022/03/17 00:06:50;;;;;;;14.95;12.30;;;10.70;99.90;;;;;;5021914;28;20054;-85
2022/03/17 00:09:16;;;;;;;16.85;12.55;;;10.70;99.90;;;;;;5010323;28;20038;-84
2022/03/17 00:11:42;;;;;;;15.60;12.50;;;10.70;99.90;;;;;;5020260;28;20033;-85
2022/03/17 00:14:07;;;;;;;17.02;12.88;;;10.70;99.90;;;;;;5011559;28;20050;-85
2022/03/17 00:16:34;;;;;;;15.43;12.45;;;10.70;99.90;;;;;;4997212;28;20046;-86
2022/03/17 00:19:03;;;;;;;15.57;12.65;;;10.60;99.90;;;;;;5003505;28;20050;-85
2022/03/17 00:21:29;;;;;;;16.70;12.85;;;10.60;99.90;;;;;;4997461;28;20050;-85
2022/03/17 00:23:54;;;;;;;16.77;13.35;;;10.60;99.90;;;;;;5015427;28;20053;-86
2022/03/17 00:26:20;;;;;;;16.25;13.10;;;10.60;99.90;;;;;;4980428;28;20046;-86
2022/03/17 00:28:46;;;;;;;15.55;12.38;;;10.60;99.90;;;;;;4984458;28;20041;-85
2022/03/17 00:31:11;;;;;;;16.30;12.88;;;10.60;99.90;;;;;;4985524;28;20057;-86
2022/03/17 00:33:37;;;;;;;16.67;13.07;;;10.60;99.90;;;;;;4984877;28;20049;-86
2022/03/17 00:36:03;;;;;;;16.00;13.10;;;10.50;99.90;;;;;;4982108;28;20053;-86
2022/03/17 00:38:29;;;;;;;18.13;14.05;;;10.50;99.90;;;;;;4981047;28;20058;-85
2022/03/17 00:40:55;;;;;;;16.10;13.25;;;10.50;99.90;;;;;;4984004;28;20104;-86
2022/03/17 00:43:22;;;;;;;18.30;13.57;;;10.50;99.90;;;;;;4996807;28;20054;-86
2022/03/17 00:45:48;;;;;;;19.90;14.13;;;10.50;99.90;;;;;;4985012;28;20447;-86
2022/03/17 00:48:14;;;;;;;18.20;13.88;;;10.50;99.90;;;;;;4983031;28;20058;-86
2022/03/17 00:50:40;;;;;;;17.83;13.80;;;10.40;99.90;;;;;;4997520;28;20057;-85
2022/03/17 00:53:06;;;;;;;20.67;14.13;;;10.40;99.90;;;;;;4998496;28;20050;-85
2022/03/17 00:55:32;;;;;;;18.73;14.90;;;10.40;99.90;;;;;;4984398;28;20444;-84
2022/03/17 00:57:58;;;;;;;19.45;14.90;;;10.40;99.90;;;;;;4984467;28;20053;-86
2022/03/17 01:00:23;;;;;;;17.42;14.20;;;10.30;99.90;;;;;;4996658;28;20073;-86
2022/03/17 01:02:53;;;;;;;17.80;14.50;;;10.30;99.90;;;;;;4985019;28;20062;-85
2022/03/17 01:05:20;;;;;;;18.20;15.13;;;10.30;99.90;;;;;;4998520;28;20052;-84
2022/03/17 01:07:46;;;;;;;17.73;15.02;;;10.20;99.90;;;;;;4982952;28;20054;-84
2022/03/17 01:10:15;;;;;;;18.17;14.48;;;10.20;99.90;;;;;;4981208;28;20072;-84
2022/03/17 01:12:46;;;;;;;18.05;15.13;;;10.20;99.90;;;;;;4997482;28;20057;-84
2022/03/17 01:15:16;;;;;;;18.48;15.27;;;10.20;99.90;;;;;;5012797;28;20050;-83
2022/03/17 01:17:41;;;;;;;20.83;16.08;;;10.10;99.90;;;;;;5012516;28;20092;-84
2022/03/17 01:20:08;;;;;;;21.75;16.98;;;10.10;99.90;;;;;;4995770;28;20046;-83
2022/03/17 01:22:35;;;;;;;21.38;16.33;;;10.00;99.90;;;;;;5011465;28;20048;-85
2022/03/17 01:25:00;;;;;;;20.33;17.17;;;10.00;99.90;;;;;;5002366;28;20129;-84
2022/03/17 01:27:26;;;;;;;20.13;16.88;;;10.00;99.90;;;;;;4995313;28;20213;-85
2022/03/17 01:29:53;;;;;;;21.35;16.40;;;9.90;99.90;;;;;;4995206;28;20053;-84
2022/03/17 01:32:21;;;;;;;21.55;16.42;;;9.90;99.90;;;;;;4984898;28;20062;-85
2022/03/17 01:34:46;;;;;;;21.15;16.67;;;9.90;99.90;;;;;;4996073;28;20046;-83
2022/03/17 01:37:13;;;;;;;26.83;17.95;;;10.30;99.90;;;;;;5001642;28;20141;-83
2022/03/17 01:39:38;;;;;;;24.48;17.67;;;9.90;99.90;;;;;;4993691;28;20116;-84
2022/03/17 01:42:07;;;;;;;22.52;17.80;;;9.80;99.90;;;;;;4996093;28;20049;-84
2022/03/17 01:44:33;;;;;;;21.70;17.85;;;9.80;99.90;;;;;;5011067;28;20038;-82
2022/03/17 01:49:45;;;;;;;22.35;17.58;;;9.80;99.90;;;;;;5002648;28;20057;-83
2022/03/17 01:52:11;;;;;;;23.48;17.02;;;9.70;99.90;;;;;;4987842;28;20046;-83
2022/03/17 01:54:38;;;;;;;23.10;17.50;;;9.70;99.90;;;;;;5002132;28;20121;-82
2022/03/17 01:57:06;;;;;;;21.35;16.75;;;9.70;99.90;;;;;;4991873;28;20085;-83
2022/03/17 01:59:34;;;;;;;22.98;18.13;;;9.70;99.90;;;;;;5015219;28;20184;-83
2022/03/17 02:02:02;;;;;;;24.08;18.02;;;9.70;99.90;;;;;;4970193;28;20085;-83
2022/03/17 02:04:28;;;;;;;22.80;17.13;;;9.70;99.90;;;;;;4982422;28;20137;-83
2022/03/17 02:06:54;;;;;;;23.13;16.60;;;9.70;99.90;;;;;;4996978;28;20125;-83
2022/03/17 02:09:20;;;;;;;23.27;17.70;;;9.70;99.90;;;;;;4981978;28;20097;-82
2022/03/17 02:14:34;;;;;;;23.08;18.08;;;9.90;99.90;;;;;;4993591;28;20046;-82
2022/03/17 02:17:00;;;;;;;23.55;17.80;;;9.70;99.90;;;;;;4984507;28;20116;-83
2022/03/17 02:19:26;;;;;;;25.52;18.65;;;9.70;99.90;;;;;;4982552;28;20042;-82
2022/03/17 02:21:52;;;;;;;25.33;18.88;;;9.70;99.90;;;;;;4986151;28;20057;-82
2022/03/17 02:27:03;;;;;;;27.75;18.25;;;9.70;99.90;;;;;;4996263;28;20050;-83
2022/03/17 02:29:31;;;;;;;23.92;17.45;;;9.70;99.90;;;;;;4992592;28;20042;-83
2022/03/17 02:31:58;;;;;;;26.75;19.35;;;9.70;99.90;;;;;;4993762;28;20054;-82
2022/03/17 02:34:23;;;;;;;25.30;18.30;;;9.70;99.90;;;;;;4992916;28;20121;-82
2022/03/17 02:36:52;;;;;;;23.05;18.13;;;9.70;99.90;;;;;;4991647;28;20121;-83
2022/03/17 02:39:20;;;;;;;27.23;18.63;;;9.70;99.90;;;;;;4993062;28;20046;-83
2022/03/17 02:41:46;;;;;;;23.10;17.92;;;9.70;99.90;;;;;;4986741;28;20044;-83
2022/03/17 02:44:12;;;;;;;24.23;17.30;;;9.70;99.90;;;;;;4991899;28;20133;-82
2022/03/17 02:46:38;;;;;;;23.67;17.92;;;9.70;99.90;;;;;;4982676;28;20488;-82
2022/03/17 02:49:04;;;;;;;23.80;18.55;;;9.70;99.90;;;;;;4992807;28;20046;-83
2022/03/17 02:51:30;;;;;;;24.98;17.85;;;9.70;99.90;;;;;;4998431;28;20052;-82
2022/03/17 02:53:56;;;;;;;24.77;18.15;;;9.80;99.90;;;;;;5000904;28;20058;-82
2022/03/17 02:56:22;;;;;;;27.20;18.65;;;9.80;99.90;;;;;;4986045;28;20518;-83
2022/03/17 02:58:48;;;;;;;22.98;17.45;;;9.80;99.90;;;;;;4984191;28;20038;-83
2022/03/17 03:01:14;;;;;;;27.02;19.08;;;9.70;99.90;;;;;;4984070;28;20057;-83
2022/03/17 03:03:39;;;;;;;26.48;19.08;;;9.70;99.90;;;;;;5006358;28;20088;-83
2022/03/17 03:06:06;;;;;;;27.58;18.88;;;9.80;99.90;;;;;;4996903;28;20049;-84
2022/03/17 03:08:33;;;;;;;27.20;18.92;;;9.90;99.90;;;;;;4980119;28;20050;-83
2022/03/17 03:10:59;;;;;;;26.33;19.20;;;9.70;99.90;;;;;;5006562;28;20058;-83
2022/03/17 03:13:25;;;;;;;27.98;19.25;;;9.70;99.90;;;;;;4997416;28;20109;-83
2022/03/17 03:15:51;;;;;;;28.70;20.13;;;9.70;99.90;;;;;;5013007;28;20152;-83
2022/03/17 03:18:18;;;;;;;28.58;19.17;;;9.70;99.90;;;;;;4996481;28;20160;-82
2022/03/17 03:20:44;;;;;;;29.00;19.85;;;9.70;99.90;;;;;;5001090;28;20061;-83
2022/03/17 03:23:10;;;;;;;27.42;19.52;;;9.70;99.90;;;;;;4985428;28;20046;-84
2022/03/17 03:25:36;;;;;;;31.05;20.63;;;9.70;99.90;;;;;;4983033;28;20096;-83
2022/03/17 03:28:06;;;;;;;28.25;20.02;;;9.70;99.90;;;;;;4983595;28;20444;-84
2022/03/17 03:30:32;;;;;;;25.77;18.08;;;9.60;99.90;;;;;;4989942;28;20081;-83
2022/03/17 03:33:01;;;;;;;18.77;11.18;;;9.60;99.90;;;;;;4996577;28;20435;-83
2022/03/17 03:38:10;;;;;;;14.73;8.15;;;9.30;99.90;;;;;;5000111;28;20050;-83
2022/03/17 03:40:36;;;;;;;15.80;7.40;;;9.10;99.90;;;;;;4995894;28;20479;-82
2022/03/17 03:43:02;;;;;;;9.60;6.40;;;8.90;99.90;;;;;;4980434;28;20140;-81
2022/03/17 03:45:28;;;;;;;11.60;6.53;;;8.70;99.90;;;;;;4964652;28;20085;-82
2022/03/17 03:47:54;;;;;;;13.27;6.57;;;8.60;99.90;;;;;;4987578;28;20043;-81
2022/03/17 03:50:19;;;;;;;11.27;6.25;;;8.50;99.90;;;;;;4965259;28;20042;-82
2022/03/17 03:52:45;;;;;;;11.10;6.30;;;8.40;99.90;;;;;;4982031;28;20164;-82
2022/03/17 03:55:11;;;;;;;13.40;6.25;;;8.40;99.90;;;;;;4984290;28;20050;-81
2022/03/17 03:57:37;;;;;;;10.98;6.45;;;9.10;99.90;;;;;;4995037;28;20050;-82
2022/03/17 04:02:45;;;;;;;10.52;5.13;;;8.20;99.90;;;;;;4988085;28;20068;-82
2022/03/17 04:05:11;;;;;;;11.52;5.55;;;8.20;99.90;;;;;;4996100;28;20041;-82
2022/03/17 04:07:37;;;;;;;11.20;5.43;;;8.10;99.90;;;;;;4981599;28;20038;-82
2022/03/17 04:10:04;;;;;;;10.73;4.85;;;8.10;99.90;;;;;;4982130;28;20078;-83
2022/03/17 04:12:29;;;;;;;12.13;5.03;;;8.00;99.90;;;;;;4984551;28;20089;-82
2022/03/17 04:14:56;;;;;;;12.50;5.38;;;8.00;99.90;;;;;;4982430;28;20050;-83
2022/03/17 04:17:21;;;;;;;11.75;6.38;;;8.00;99.90;;;;;;4984039;28;20064;-83
2022/03/17 04:19:47;;;;;;;13.38;6.15;;;8.00;99.90;;;;;;4982304;28;20157;-83
2022/03/17 04:22:13;;;;;;;17.00;6.78;;;7.90;99.90;;;;;;4983764;28;20050;-83
2022/03/17 04:24:39;;;;;;;18.55;7.57;;;7.90;99.90;;;;;;5010690;28;20049;-83
2022/03/17 04:27:06;;;;;;;16.42;8.13;;;7.90;99.90;;;;;;5003886;28;20041;-82
2022/03/17 04:29:32;;;;;;;22.13;9.52;;;7.90;99.90;;;;;;5001465;28;20400;-82
2022/03/17 04:31:58;;;;;;;18.60;8.55;;;7.90;99.90;;;;;;4995344;28;20121;-82
2022/03/17 04:34:24;;;;;;;18.80;8.82;;;7.90;99.90;;;;;;4980985;28;20046;-82
2022/03/17 04:36:50;;;;;;;20.90;8.50;;;7.90;99.90;;;;;;4995589;28;20511;-83
2022/03/17 04:39:16;;;;;;;22.10;7.78;;;7.90;99.90;;;;;;4994402;28;20050;-82
2022/03/17 04:41:42;;;;;;;18.48;5.55;;;7.90;99.90;;;;;;4982740;28;20547;-82
2022/03/17 04:44:08;;;;;;;15.68;4.55;;;7.80;99.90;;;;;;4986519;28;20149;-83
2022/03/17 04:46:35;;;;;;;16.17;3.58;;;7.80;99.90;;;;;;4982602;28;20072;-83
2022/03/17 04:49:00;;;;;;;14.65;3.38;;;7.80;99.90;;;;;;4984445;28;20081;-84
2022/03/17 04:51:26;;;;;;;13.27;2.97;;;7.00;99.90;;;;;;5011932;28;20503;-84
2022/03/17 04:53:52;;;;;;;9.32;2.75;;;7.70;99.90;;;;;;4994671;28;20267;-84
2022/03/17 04:56:18;;;;;;;11.48;2.65;;;7.70;99.90;;;;;;4995284;28;20085;-84
2022/03/17 04:58:45;;;;;;;8.02;2.42;;;7.70;99.90;;;;;;4972770;28;20081;-83
2022/03/17 05:01:12;;;;;;;10.18;2.75;;;7.60;99.90;;;;;;4996323;28;20052;-81
2022/03/17 05:03:39;;;;;;;11.48;2.90;;;7.60;99.90;;;;;;5000149;28;20419;-81
2022/03/17 05:06:05;;;;;;;14.00;3.20;;;7.60;99.90;;;;;;5012597;28;20117;-81
2022/03/17 05:08:35;;;;;;;11.10;3.15;;;7.80;99.90;;;;;;4995623;28;20483;-83
2022/03/17 05:11:02;;;;;;;9.73;3.03;;;7.60;99.90;;;;;;5010256;28;20054;-83
2022/03/17 05:13:28;;;;;;;15.50;2.88;;;7.60;99.90;;;;;;4995539;28;20507;-82
2022/03/17 05:15:54;;;;;;;10.68;3.35;;;7.60;99.90;;;;;;4985305;28;20084;-82
2022/03/17 05:18:20;;;;;;;10.27;3.15;;;8.30;99.90;;;;;;4977076;28;20058;-82
2022/03/17 05:20:47;;;;;;;9.88;2.72;;;7.60;99.90;;;;;;5020563;28;20042;-82
2022/03/17 05:23:18;;;;;;;13.00;2.72;;;7.60;99.90;;;;;;4993468;28;20053;-82
2022/03/17 05:25:46;;;;;;;13.88;3.25;;;7.60;99.90;;;;;;4997392;28;20050;-82
2022/03/17 05:28:12;;;;;;;13.98;2.70;;;7.60;99.90;;;;;;5010465;28;20042;-83
2022/03/17 05:30:39;;;;;;;11.00;2.75;;;7.60;99.90;;;;;;4993855;28;20500;-82
2022/03/17 05:33:06;;;;;;;9.48;2.50;;;7.60;99.90;;;;;;4994647;28;20057;-82
2022/03/17 05:35:32;;;;;;;12.20;2.70;;;7.60;99.90;;;;;;4993624;28;20050;-82
2022/03/17 05:37:58;;;;;;;9.10;2.03;;;7.60;99.90;;;;;;4992019;28;20471;-82
2022/03/17 05:40:24;;;;;;;11.07;2.10;;;7.60;99.90;;;;;;4984100;28;20045;-82
2022/03/17 05:42:55;;;;;;;8.38;1.95;;;7.50;99.90;;;;;;5009785;28;20046;-83
2022/03/17 05:45:25;;;;;;;9.80;2.17;;;7.60;99.90;;;;;;4996964;28;20046;-82
2022/03/17 05:47:52;;;;;;;10.68;2.10;;;7.50;99.90;;;;;;4995868;28;20115;-82
2022/03/17 05:50:23;;;;;;;13.75;2.58;;;8.00;99.90;;;;;;5010615;28;20136;-82
2022/03/17 05:52:49;;;;;;;9.07;1.88;;;7.50;99.90;;;;;;4992168;28;20445;-81
2022/03/17 05:55:17;;;;;;;9.05;2.05;;;7.80;99.90;;;;;;4963014;28;20050;-83
2022/03/17 05:57:45;;;;;;;8.73;1.95;;;7.50;99.90;;;;;;4995352;28;20050;-82
2022/03/17 06:00:13;;;;;;;10.77;2.20;;;7.50;99.90;;;;;;4993529;28;20058;-82
2022/03/17 06:02:40;;;;;;;10.75;2.35;;;7.50;99.90;;;;;;4986916;28;20049;-82
2022/03/17 06:05:07;;;;;;;13.65;2.20;;;7.50;99.90;;;;;;4993568;28;20042;-82
2022/03/17 06:07:40;;;;;;;12.27;2.42;;;7.50;99.90;;;;;;4978637;28;20188;-81
2022/03/17 06:10:08;;;;;;;11.13;2.40;;;7.50;99.90;;;;;;4978708;28;20057;-82
2022/03/17 06:12:34;;;;;;;13.60;2.53;;;7.50;99.90;;;;;;4988000;28;20132;-82
2022/03/17 06:15:00;;;;;;;7.95;1.77;;;7.50;99.90;;;;;;4985826;28;20061;-81
2022/03/17 06:17:42;;;;;;;14.65;2.40;;;7.50;99.90;;;;;;4993367;28;20046;-82
2022/03/17 06:20:11;;;;;;;13.45;2.42;;;7.50;99.90;;;;;;4995852;28;20038;-82
2022/03/17 06:22:42;;;;;;;12.00;2.40;;;7.50;99.90;;;;;;4982429;28;20050;-82
2022/03/17 06:25:10;;;;;;;9.63;1.80;;;7.50;99.90;;;;;;5010024;28;20547;-81
2022/03/17 06:27:36;;;;;;;8.93;1.90;;;7.40;99.90;;;;;;4981488;28;20053;-83
2022/03/17 06:30:07;;;;;;;10.23;1.98;;;7.40;99.90;;;;;;5001147;28;20046;-82
2022/03/17 06:32:39;;;;;;;7.80;1.80;;;7.40;99.90;;;;;;4982187;28;20054;-83
2022/03/17 06:35:10;;;;;;;10.02;2.10;;;6.10;99.90;;;;;;4997108;28;20078;-83
2022/03/17 06:37:37;;;;;;;10.00;2.22;;;7.40;99.90;;;;;;4996943;28;20055;-82
2022/03/17 06:40:04;;;;;;;12.93;2.72;;;7.50;99.90;;;;;;4998498;28;20607;-82
2022/03/17 06:42:30;;;;;;;10.38;2.47;;;7.40;99.90;;;;;;4997536;28;20085;-82
2022/03/17 06:44:56;;;;;;;12.65;1.95;;;7.40;99.90;;;;;;4986888;28;20079;-83
2022/03/17 06:47:22;;;;;;;14.13;2.70;;;7.30;99.90;;;;;;4996691;28;20039;-82
2022/03/17 06:49:48;;;;;;;11.57;2.63;;;7.40;99.90;;;;;;4996954;28;20042;-82
2022/03/17 06:52:13;;;;;;;10.73;2.30;;;7.30;99.90;;;;;;4997542;28;20915;-82
2022/03/17 06:54:39;;;;;;;10.63;2.40;;;7.40;99.90;;;;;;4984334;28;20753;-82
2022/03/17 06:57:05;;;;;;;12.27;2.88;;;7.30;99.90;;;;;;5000296;28;20039;-83
2022/03/17 06:59:31;;;;;;;15.10;2.78;;;7.30;99.90;;;;;;4999223;28;20057;-82
2022/03/17 07:01:56;;;;;;;14.02;2.47;;;7.40;99.90;;;;;;4984705;28;20062;-82
2022/03/17 07:04:22;;;;;;;11.90;2.35;;;7.40;99.90;;;;;;4997884;28;20077;-80
2022/03/17 07:06:49;;;;;;;13.40;2.67;;;7.40;99.90;;;;;;5015099;28;20073;-82
2022/03/17 07:09:15;;;;;;;13.98;2.83;;;6.50;99.90;;;;;;5017207;28;20076;-82
2022/03/17 07:11:40;;;;;;;12.05;2.53;;;7.30;99.90;;;;;;5000462;28;20485;-81
2022/03/17 07:14:06;;;;;;;16.20;2.92;;;7.40;99.90;;;;;;4984813;28;20112;-82
2022/03/17 07:16:35;;;;;;;11.27;2.60;;;7.40;99.90;;;;;;4984379;28;20061;-82
2022/03/17 07:19:00;;;;;;;12.75;2.55;;;7.40;99.90;;;;;;4999859;28;20072;-82
2022/03/17 07:21:26;;;;;;;10.77;2.40;;;7.40;99.90;;;;;;4986191;28;20046;-82
2022/03/17 07:23:52;;;;;;;12.10;2.15;;;7.30;99.90;;;;;;5017559;28;20054;-82
2022/03/17 07:26:18;;;;;;;11.07;2.63;;;7.30;99.90;;;;;;4999284;28;20491;-82
2022/03/17 07:28:44;;;;;;;10.23;2.25;;;7.40;99.90;;;;;;4986016;28;20050;-82
2022/03/17 07:31:09;;;;;;;12.02;2.30;;;7.40;99.90;;;;;;4984604;28;20054;-82
2022/03/17 07:33:37;;;;;;;13.07;2.47;;;7.40;99.90;;;;;;4999340;28;20519;-82
2022/03/17 07:36:06;;;;;;;12.07;2.60;;;7.40;99.90;;;;;;5015768;28;20057;-82
2022/03/17 07:38:32;;;;;;;14.02;2.65;;;7.40;99.90;;;;;;5016158;28;20128;-82
2022/03/17 07:40:58;;;;;;;9.73;2.25;;;7.50;99.90;;;;;;5017712;28;20141;-83
2022/03/17 07:43:25;;;;;;;14.07;3.33;;;7.50;99.90;;;;;;4999336;28;20042;-82
2022/03/17 07:45:53;;;;;;;11.55;2.60;;;7.50;99.90;;;;;;4983131;28;20075;-82
2022/03/17 07:48:20;;;;;;;16.30;3.03;;;7.50;99.90;;;;;;4984706;28;20053;-82
2022/03/17 07:50:46;;;;;;;13.63;2.38;;;7.50;99.90;;;;;;5000095;28;20081;-83
2022/03/17 07:53:12;;;;;;;8.80;2.00;;;7.50;99.90;;;;;;5000852;28;20085;-83
2022/03/17 07:55:42;;;;;;;14.05;2.55;;;7.50;99.90;;;;;;4985757;28;20060;-82
2022/03/17 07:58:08;;;;;;;15.45;2.88;;;7.60;99.90;;;;;;5015356;28;20542;-82
2022/03/17 08:00:33;;;;;;;16.77;2.40;;;7.50;99.90;;;;;;5001544;28;20046;-82
2022/03/17 08:03:00;;;;;;;13.27;2.25;;;7.50;99.90;;;;;;5002237;28;20523;-83
2022/03/17 08:05:26;;;;;;;7.95;1.90;;;7.70;99.90;;;;;;4986000;28;20518;-82
2022/03/17 08:07:52;;;;;;;12.50;2.58;;;7.60;99.90;;;;;;4983296;28;20046;-82
2022/03/17 08:10:18;;;;;;;12.18;2.80;;;7.60;99.90;;;;;;5000984;28;20217;-82
2022/03/17 08:12:44;;;;;;;9.00;2.30;;;7.60;99.90;;;;;;4967908;28;20141;-82
2022/03/17 08:15:10;;;;;;;13.77;2.53;;;7.60;99.90;;;;;;5000484;28;20117;-82
2022/03/17 08:17:36;;;;;;;14.13;2.53;;;7.70;99.90;;;;;;5000665;28;20104;-83
2022/03/17 08:20:05;;;;;;;13.43;2.30;;;7.80;99.90;;;;;;4983682;28;20096;-83
2022/03/17 08:22:31;;;;;;;13.00;2.38;;;7.90;99.90;;;;;;5000635;28;20061;-82
2022/03/17 08:24:57;;;;;;;14.20;2.42;;;8.10;99.90;;;;;;4983847;28;20547;-83
2022/03/17 08:27:23;;;;;;;11.93;2.50;;;8.30;99.90;;;;;;5015117;28;20053;-82
2022/03/17 08:29:49;;;;;;;12.60;2.38;;;8.60;99.90;;;;;;5000611;28;20482;-86
2022/03/17 08:32:15;;;;;;;11.00;2.38;;;8.50;99.90;;;;;;4972459;28;20045;-82
2022/03/17 08:34:40;;;;;;;8.38;1.95;;;8.60;99.90;;;;;;5000238;28;20061;-85
2022/03/17 08:37:06;;;;;;;13.05;2.40;;;8.80;99.90;;;;;;4984526;28;20041;-82
2022/03/17 08:39:34;;;;;;;11.32;2.45;;;9.00;99.90;;;;;;5000890;28;20045;-84
2022/03/17 08:42:00;;;;;;;12.63;2.40;;;8.50;99.90;;;;;;5003696;28;20074;-83
2022/03/17 08:44:26;;;;;;;9.98;2.05;;;9.30;99.90;;;;;;4988004;28;20085;-83
2022/03/17 08:49:36;;;;;;;8.60;2.10;;;9.20;99.90;;;;;;5022293;28;20057;-84
2022/03/17 08:52:03;;;;;;;8.50;2.10;;;9.30;99.90;;;;;;4987026;28;20257;-83
2022/03/17 08:54:33;;;;;;;8.82;2.35;;;9.40;99.90;;;;;;4999493;28;20133;-84
2022/03/17 08:57:02;;;;;;;10.73;2.65;;;9.40;99.90;;;;;;4989803;28;20407;-85
2022/03/17 08:59:31;;;;;;;12.40;2.50;;;9.30;99.90;;;;;;4998674;28;20049;-83
2022/03/17 09:02:03;;;;;;;12.13;2.38;;;8.90;99.90;;;;;;4984241;28;20100;-83
2022/03/17 09:04:29;;;;;;;10.18;2.40;;;9.60;99.90;;;;;;5015159;28;20046;-83
2022/03/17 09:06:59;;;;;;;13.48;2.20;;;9.60;99.90;;;;;;5013230;28;20046;-84
2022/03/17 09:09:34;;;;;;;11.20;2.10;;;9.70;99.90;;;;;;5000260;28;20065;-83
2022/03/17 09:12:05;;;;;;;14.82;2.90;;;9.80;99.90;;;;;;5014887;28;20053;-84
2022/03/17 09:14:32;;;;;;;11.98;2.55;;;8.80;99.90;;;;;;4983894;28;20077;-85
2022/03/17 09:16:58;;;;;;;10.85;2.45;;;10.20;99.90;;;;;;5013396;28;20514;-85
2022/03/17 09:19:24;;;;;;;10.27;2.10;;;10.40;99.90;;;;;;4998534;28;20094;-83
2022/03/17 09:21:51;;;;;;;9.43;2.30;;;10.60;99.90;;;;;;5012375;28;20049;-83
2022/03/17 09:24:17;;;;;;;8.32;2.28;;;10.70;99.90;;;;;;4995821;28;20058;-83
2022/03/17 09:26:43;;;;;;;12.50;2.53;;;10.80;99.90;;;;;;4999006;28;20069;-85
2022/03/17 09:29:09;;;;;;;6.35;1.92;;;10.90;99.90;;;;;;4982350;28;20058;-85
2022/03/17 09:31:37;;;;;;;11.43;2.58;;;11.00;99.90;;;;;;5014013;28;20046;-85
2022/03/17 09:34:04;;;;;;;6.80;2.10;;;11.10;99.90;;;;;;4973807;28;20579;-86
2022/03/17 09:36:29;;;;;;;9.88;2.20;;;11.40;99.90;;;;;;4998760;28;20049;-85
2022/03/17 09:41:42;;;;;;;8.40;2.30;;;11.40;99.90;;;;;;4998076;28;20054;-85
2022/03/17 09:44:07;;;;;;;15.52;2.40;;;11.40;99.90;;;;;;4997257;28;20441;-84
2022/03/17 09:46:38;;;;;;;8.35;2.10;;;11.30;99.90;;;;;;4998144;28;20129;-84
2022/03/17 09:49:07;;;;;;;12.70;2.25;;;11.50;99.90;;;;;;5014689;28;20038;-83
2022/03/17 09:51:34;;;;;;;9.65;2.55;;;11.50;99.90;;;;;;4997376;28;20093;-84
2022/03/17 09:54:00;;;;;;;9.45;2.10;;;11.80;99.90;;;;;;5013544;28;20080;-85
2022/03/17 09:56:28;;;;;;;12.10;2.63;;;12.00;99.90;;;;;;4983846;28;20042;-84
2022/03/17 09:58:59;;;;;;;13.18;2.72;;;12.00;99.90;;;;;;4982530;28;20084;-84
2022/03/17 10:01:26;;;;;;;9.23;2.42;;;10.90;99.90;;;;;;4989502;28;20124;-85
2022/03/17 10:03:58;;;;;;;10.73;2.22;;;11.50;99.90;;;;;;5015432;28;20046;-84
2022/03/17 10:06:24;;;;;;;11.30;2.15;;;11.60;99.90;;;;;;5011105;28;20042;-85
2022/03/17 10:08:50;;;;;;;11.38;3.10;;;11.10;99.90;;;;;;4998015;28;20047;-86
2022/03/17 10:11:25;;;;;;;7.88;2.00;;;11.80;99.90;;;;;;4982112;28;20045;-84
2022/03/17 10:13:51;;;;;;;12.35;2.88;;;12.00;99.90;;;;;;5015575;28;20120;-85
2022/03/17 10:16:22;;;;;;;11.10;2.45;;;12.10;99.90;;;;;;4997364;28;20038;-84
2022/03/17 10:19:08;;;;;;;11.32;2.17;;;12.20;99.90;;;;;;4990117;28;20089;-83
2022/03/17 10:21:34;;;;;;;12.80;2.70;;;12.30;99.90;;;;;;4989937;28;20049;-82
2022/03/17 10:24:03;;;;;;;12.93;2.80;;;12.60;99.90;;;;;;4999323;28;20575;-84
2022/03/17 10:26:30;;;;;;;11.07;2.50;;;12.70;99.90;;;;;;5012034;28;20521;-84
2022/03/17 10:29:19;;;;;;;10.25;2.38;;;12.10;99.90;;;;;;5013436;28;20084;-84
2022/03/17 10:31:54;;;;;;;7.03;2.25;;;12.60;99.90;;;;;;4997882;28;20049;-84
2022/03/17 10:34:20;;;;;;;14.77;2.45;;;12.70;99.90;;;;;;5013318;28;20511;-84
2022/03/17 10:36:47;;;;;;;12.65;2.70;;;12.90;99.90;;;;;;5012525;28;20117;-83
2022/03/17 10:39:13;;;;;;;9.07;2.47;;;13.10;99.90;;;;;;5013692;28;20581;-84
2022/03/17 10:41:45;;;;;;;10.05;2.53;;;13.10;99.90;;;;;;4982978;28;20049;-84
2022/03/17 10:44:13;;;;;;;14.10;2.60;;;13.00;99.90;;;;;;4996343;28;20549;-84
2022/03/17 10:46:56;;;;;;;11.65;2.45;;;12.90;99.90;;;;;;4989990;28;20553;-84
2022/03/17 10:49:22;;;;;;;9.95;2.67;;;12.90;99.90;;;;;;5017047;28;20189;-84
2022/03/17 10:51:53;;;;;;;13.50;3.10;;;12.70;99.90;;;;;;4982377;28;20599;-84
2022/03/17 10:54:18;;;;;;;11.40;2.65;;;12.60;99.90;;;;;;5006262;28;20122;-84
2022/03/17 10:57:00;;;;;;;10.02;2.65;;;12.60;99.90;;;;;;4984236;28;20077;-84
2022/03/17 10:59:47;;;;;;;9.85;2.38;;;12.80;99.90;;;;;;5013294;28;20058;-84
2022/03/17 11:02:25;;;;;;;16.70;3.63;;;12.70;99.90;;;;;;4987024;28;20163;-85
2022/03/17 11:04:51;;;;;;;13.90;2.67;;;12.70;99.90;;;;;;5006610;28;20399;-82
2022/03/17 11:07:19;;;;;;;7.45;2.08;;;12.80;99.90;;;;;;5013267;28;20048;-83
2022/03/17 11:09:46;;;;;;;9.80;2.35;;;12.90;99.90;;;;;;4986555;28;20097;-83
2022/03/17 11:12:17;;;;;;;7.97;1.95;;;12.80;99.90;;;;;;5016585;28;20377;-84
2022/03/17 11:14:47;;;;;;;9.70;2.83;;;12.70;99.90;;;;;;5017442;28;20061;-84
2022/03/17 11:17:26;;;;;;;9.20;2.00;;;12.80;99.90;;;;;;4984213;28;20108;-83
2022/03/17 11:20:04;;;;;;;13.07;2.80;;;12.90;99.90;;;;;;4985815;28;20054;-83
2022/03/17 11:22:32;;;;;;;9.75;2.15;;;12.90;99.90;;;;;;5002163;28;20042;-84
2022/03/17 11:25:25;;;;;;;8.80;2.20;;;12.80;99.90;;;;;;4999941;28;20168;-83
2022/03/17 11:27:58;;;;;;;10.38;2.95;;;13.00;99.90;;;;;;4996309;28;20053;-83
2022/03/17 11:30:30;;;;;;;12.20;2.75;;;13.00;99.90;;;;;;4995114;28;20046;-83
2022/03/17 11:32:58;;;;;;;10.55;1.85;;;13.00;99.90;;;;;;5015803;28;20081;-85
2022/03/17 11:35:33;;;;;;;12.60;2.70;;;13.10;99.90;;;;;;4999082;28;20065;-83
2022/03/17 11:38:39;;;;;;;10.07;2.10;;;12.80;99.90;;;;;;5016423;28;20065;-86
2022/03/17 11:41:07;;;;;;;11.40;2.75;;;13.00;99.90;;;;;;4951044;28;20064;-85
2022/03/17 11:43:39;;;;;;;10.48;2.55;;;13.30;99.90;;;;;;4950785;28;20056;-85
2022/03/17 11:46:19;;;;;;;9.95;2.38;;;13.40;99.90;;;;;;4977895;28;20062;-85
2022/03/17 11:48:51;;;;;;;10.25;2.30;;;13.40;99.90;;;;;;5006094;28;20041;-83
2022/03/17 11:51:19;;;;;;;10.45;2.78;;;13.30;99.90;;;;;;5001385;28;20506;-85
2022/03/17 11:54:03;;;;;;;8.68;2.20;;;13.30;99.90;;;;;;4984624;28;20051;-83
2022/03/17 11:56:41;;;;;;;10.25;2.28;;;13.50;99.90;;;;;;4985055;28;20046;-85
2022/03/17 11:59:07;;;;;;;7.95;1.50;;;14.10;99.90;;;;;;5014983;28;20073;-83
2022/03/17 12:01:39;;;;;;;10.05;2.05;;;13.80;99.90;;;;;;5014720;28;20054;-85
2022/03/17 12:04:05;;;;;;;7.15;2.00;;;14.00;99.90;;;;;;4986124;28;20144;-84
2022/03/17 12:06:39;;;;;;;9.07;1.77;;;14.50;99.90;;;;;;5017910;28;20039;-85
2022/03/17 12:09:13;;;;;;;9.15;2.35;;;14.80;99.90;;;;;;5023876;28;20099;-85
2022/03/17 12:11:47;;;;;;;6.82;2.10;;;15.20;99.90;;;;;;5009540;28;20046;-85
2022/03/17 12:14:25;;;;;;;10.40;2.13;;;16.20;99.90;;;;;;4991223;28;20058;-84
2022/03/17 12:16:55;;;;;;;11.02;2.30;;;15.20;99.90;;;;;;5001627;28;20080;-84
2022/03/17 12:19:38;;;;;;;11.27;2.00;;;15.10;99.90;;;;;;5017297;28;20050;-86
2022/03/17 12:22:06;;;;;;;5.90;1.77;;;14.90;99.90;;;;;;4990112;28;20053;-84
2022/03/17 12:24:35;;;;;;;4.68;1.65;;;15.10;99.90;;;;;;4999113;28;20049;-84
2022/03/17 12:27:22;;;;;;;7.63;1.88;;;15.50;99.90;;;;;;5001336;28;20042;-86
2022/03/17 12:30:08;;;;;;;8.20;1.70;;;15.90;99.90;;;;;;4984560;28;20125;-86
2022/03/17 12:32:39;;;;;;;7.70;2.03;;;16.10;99.90;;;;;;4984798;28;20149;-87
2022/03/17 12:35:08;;;;;;;7.07;1.70;;;16.00;99.90;;;;;;4999416;28;20407;-87
2022/03/17 12:37:35;;;;;;;9.00;2.00;;;16.00;99.90;;;;;;4997474;28;20058;-86
2022/03/17 12:40:05;;;;;;;5.38;1.75;;;16.30;99.90;;;;;;5004769;28;20062;-85
2022/03/17 12:42:38;;;;;;;8.50;2.50;;;16.80;99.90;;;;;;4987470;28;20053;-86
2022/03/17 12:45:15;;;;;;;8.40;1.88;;;16.60;99.90;;;;;;4989138;28;20065;-86
2022/03/17 12:47:46;;;;;;;7.15;1.50;;;16.60;98.90;;;;;;4991488;28;20047;-84
2022/03/17 12:50:20;;;;;;;8.48;2.33;;;16.40;99.50;;;;;;4989323;28;20567;-87
2022/03/17 12:52:48;;;;;;;9.68;2.17;;;16.20;99.90;;;;;;5017185;28;20046;-87
2022/03/17 12:55:16;;;;;;;9.52;2.10;;;15.40;99.60;;;;;;4991934;28;20073;-89
2022/03/17 12:57:42;;;;;;;9.15;2.00;;;16.20;99.90;;;;;;5002841;28;20050;-85
2022/03/17 13:00:14;;;;;;;7.20;1.98;;;16.40;99.90;;;;;;4989859;28;20050;-85
2022/03/17 13:02:57;;;;;;;7.47;2.05;;;16.50;99.70;;;;;;4986413;28;20100;-83
2022/03/17 13:08:08;;;;;;;7.50;1.52;;;16.00;99.70;;;;;;4987938;28;20050;-82
2022/03/17 13:16:09;;;;;;;7.65;1.75;;;16.20;99.40;;;;;;4998469;28;20100;-86